Time;durP1;ratioP1;P1;durP2;ratioP2;P2;SDS_P1;SDS_P2;PMS_P1;PMS_P2;Temp;Humidity;BMP_temperature;BMP_pressure;BME280_temperature;BME280_humidity;BME280_pressure;Samples;Min_cycle;Max_cycle;Signal;HPM_P1;HPM_P2
2022/12/16 00:01:22;;;;;;;;;;;;;;;-16.94;52.16;98300.16;6296457;28;19923;-67
2022/12/16 00:04:23;;;;;;;;;;;;;;;-16.98;52.49;98303.25;6295987;28;19970;-67
2022/12/16 00:07:27;;;;;;;;;;;;;;;-17.00;52.41;98307.31;6295082;28;20010;-67
2022/12/16 00:10:51;;;;;;;;;;;;;;;-17.04;52.31;98307.84;6295839;28;19920;-67
2022/12/16 00:13:49;;;;;;;;;;;;;;;-17.09;52.21;98309.22;6295749;28;19927;-67
2022/12/16 00:16:53;;;;;;;;;;;;;;;-17.11;52.16;98310.75;6296173;28;20225;-67
2022/12/16 00:19:54;;;;;;;;;;;;;;;-17.15;52.09;98308.81;6296049;28;20437;-67
2022/12/16 00:22:57;;;;;;;;;;;;;;;-17.17;52.49;98310.38;6295650;28;19920;-67
2022/12/16 00:25:59;;;;;;;;;;;;;;;-17.18;52.42;98323.69;6295984;28;19923;-67
2022/12/16 00:29:00;;;;;;;;;;;;;;;-17.19;52.47;98322.84;6295351;28;19920;-67
2022/12/16 00:32:01;;;;;;;;;;;;;;;-17.23;52.62;98321.78;6295580;28;19927;-67
2022/12/16 00:35:05;;;;;;;;;;;;;;;-17.26;52.58;98321.56;6295914;28;20011;-67
2022/12/16 00:38:06;;;;;;;;;;;;;;;-17.30;52.51;98319.59;6294621;28;19925;-67
2022/12/16 00:41:09;;;;;;;;;;;;;;;-17.36;52.40;98321.72;6295947;28;20003;-68
2022/12/16 00:44:14;;;;;;;;;;;;;;;-17.40;52.38;98319.78;6295818;28;19920;-65
2022/12/16 00:47:17;;;;;;;;;;;;;;;-17.44;52.46;98328.75;6295476;28;19920;-66
2022/12/16 00:50:22;;;;;;;;;;;;;;;-17.48;52.81;98333.50;6295116;28;19920;-67
2022/12/16 00:53:23;;;;;;;;;;;;;;;-17.52;52.59;98324.88;6300012;28;19920;-67
2022/12/16 00:56:27;;;;;;;;;;;;;;;-17.55;52.43;98332.19;6300411;28;19928;-67
2022/12/16 00:59:28;;;;;;;;;;;;;;;-17.59;52.70;98319.34;6299773;28;20378;-67
2022/12/16 01:02:32;;;;;;;;;;;;;;;-17.61;52.75;98315.84;6300396;28;20306;-66
2022/12/16 01:05:36;;;;;;;;;;;;;;;-17.61;52.78;98321.72;6300353;28;19986;-68
2022/12/16 01:08:38;;;;;;;;;;;;;;;-17.62;52.86;98319.13;6299970;28;20062;-67
2022/12/16 01:11:42;;;;;;;;;;;;;;;-17.63;52.82;98327.41;6299854;28;20270;-67
2022/12/16 01:14:45;;;;;;;;;;;;;;;-17.66;52.65;98323.06;6300163;28;19920;-67
2022/12/16 01:17:49;;;;;;;;;;;;;;;-17.67;53.05;98324.69;6300109;28;20305;-67
2022/12/16 01:20:52;;;;;;;;;;;;;;;-17.68;52.91;98320.44;6299795;28;20014;-67
2022/12/16 01:23:54;;;;;;;;;;;;;;;-17.67;53.21;98322.19;6299497;28;19990;-67
2022/12/16 01:26:55;;;;;;;;;;;;;;;-17.67;52.93;98322.19;6298933;28;19920;-67
2022/12/16 01:29:56;;;;;;;;;;;;;;;-17.66;52.92;98323.94;6299015;28;20019;-67
2022/12/16 01:32:59;;;;;;;;;;;;;;;-17.66;52.75;98334.00;6299298;28;19920;-67
2022/12/16 01:36:02;;;;;;;;;;;;;;;-17.66;52.90;98328.97;6299148;28;19916;-67
2022/12/16 01:39:09;;;;;;;;;;;;;;;-17.67;53.03;98317.16;6299856;28;20398;-67
2022/12/16 01:42:11;;;;;;;;;;;;;;;-17.67;53.34;98322.19;6299159;28;19931;-66
2022/12/16 01:45:23;;;;;;;;;;;;;;;-17.67;52.86;98312.13;6299486;28;19920;-67
2022/12/16 01:48:33;;;;;;;;;;;;;;;-17.70;52.89;98311.94;6299238;28;19928;-67
2022/12/16 01:51:42;;;;;;;;;;;;;;;-17.75;53.04;98313.25;6299265;28;19920;-66
2022/12/16 01:54:48;;;;;;;;;;;;;;;-17.78;52.86;98312.22;6298717;28;20404;-66
2022/12/16 01:57:53;;;;;;;;;;;;;;;-17.79;53.12;98311.34;6298732;28;20007;-66
2022/12/16 02:00:59;;;;;;;;;;;;;;;-17.74;53.21;98309.13;6299164;28;19924;-66
2022/12/16 02:04:02;;;;;;;;;;;;;;;-17.73;53.03;98306.69;6297604;28;20378;-67
2022/12/16 02:07:03;;;;;;;;;;;;;;;-17.74;53.22;98310.00;6298978;28;20407;-66
2022/12/16 02:10:05;;;;;;;;;;;;;;;-17.76;53.09;98305.63;6298552;28;19920;-68
2022/12/16 02:13:28;;;;;;;;;;;;;;;-17.81;53.20;98307.84;6297820;28;20428;-67
2022/12/16 02:16:58;;;;;;;;;;;;;;;-17.84;52.94;98307.63;6283725;28;19923;-67
2022/12/16 02:20:16;;;;;;;;;;;;;;;-17.82;53.07;98315.31;6298264;28;19920;-68
2022/12/16 02:23:20;;;;;;;;;;;;;;;-17.81;53.01;98317.91;6298389;28;19938;-68
2022/12/16 02:26:40;;;;;;;;;;;;;;;-17.84;52.66;98317.69;6298472;28;19920;-67
2022/12/16 02:29:50;;;;;;;;;;;;;;;-17.87;52.54;98314.97;6297967;28;19920;-67
2022/12/16 02:32:51;;;;;;;;;;;;;;;-17.85;53.05;98321.00;6298145;28;19921;-67
2022/12/16 02:35:52;;;;;;;;;;;;;;;-17.78;52.70;98318.09;6298182;28;19920;-67
2022/12/16 02:38:57;;;;;;;;;;;;;;;-17.73;52.43;98315.88;6298143;28;20081;-68
2022/12/16 02:42:10;;;;;;;;;;;;;;;-17.76;52.59;98320.72;6298117;28;20382;-66
2022/12/16 02:45:16;;;;;;;;;;;;;;;-17.78;52.41;98333.19;6297726;28;19927;-67
2022/12/16 02:48:17;;;;;;;;;;;;;;;-17.76;52.70;98329.13;6296631;28;20401;-67
2022/12/16 02:51:19;;;;;;;;;;;;;;;-17.75;52.81;98333.34;6296773;28;19920;-67
2022/12/16 02:54:26;;;;;;;;;;;;;;;-17.76;52.92;98336.66;6297633;28;20445;-68
2022/12/16 02:57:48;;;;;;;;;;;;;;;-17.77;53.05;98334.91;6297637;28;20212;-66
2022/12/16 03:00:52;;;;;;;;;;;;;;;-17.77;53.18;98350.00;6297601;28;19917;-67
2022/12/16 03:03:56;;;;;;;;;;;;;;;-17.77;52.69;98344.97;6297417;28;20301;-68
2022/12/16 03:06:59;;;;;;;;;;;;;;;-17.79;52.88;98339.00;6297207;28;19916;-67
2022/12/16 03:10:04;;;;;;;;;;;;;;;-17.81;52.74;98352.22;6296773;28;20033;-67
2022/12/16 03:13:09;;;;;;;;;;;;;;;-17.82;52.78;98353.88;6296541;28;19927;-67
2022/12/16 03:16:12;;;;;;;;;;;;;;;-17.82;52.72;98350.50;6297059;28;19921;-68
2022/12/16 03:19:13;;;;;;;;;;;;;;;-17.83;53.09;98357.16;6296633;28;19927;-67
2022/12/16 03:22:19;;;;;;;;;;;;;;;-17.87;52.46;98355.19;6296494;28;20309;-67
2022/12/16 03:25:26;;;;;;;;;;;;;;;-17.92;52.86;98359.03;6296450;28;19927;-67
2022/12/16 03:28:49;;;;;;;;;;;;;;;-17.96;52.78;98362.09;6296785;28;19920;-67
2022/12/16 03:32:00;;;;;;;;;;;;;;;-17.98;53.06;98358.59;6296763;28;19971;-66
2022/12/16 03:35:08;;;;;;;;;;;;;;;-17.98;52.90;98364.50;6296485;28;20062;-68
2022/12/16 03:38:10;;;;;;;;;;;;;;;-17.98;53.35;98369.53;6296524;28;20104;-66
2022/12/16 03:41:15;;;;;;;;;;;;;;;-18.01;53.39;98358.41;6296531;28;20024;-66
2022/12/16 03:44:18;;;;;;;;;;;;;;;-18.04;53.36;98358.19;6296522;28;19920;-67
2022/12/16 03:47:20;;;;;;;;;;;;;;;-18.07;53.22;98363.88;6296115;28;19920;-68
2022/12/16 03:50:24;;;;;;;;;;;;;;;-18.09;52.97;98362.88;6296180;28;19920;-68
2022/12/16 03:53:27;;;;;;;;;;;;;;;-18.08;53.01;98366.25;6295727;28;19920;-67
2022/12/16 03:56:28;;;;;;;;;;;;;;;-18.09;53.22;98369.53;6295879;28;19920;-67
2022/12/16 03:59:29;;;;;;;;;;;;;;;-18.09;53.01;98379.59;6296143;28;20421;-67
2022/12/16 04:02:32;;;;;;;;;;;;;;;-18.05;53.50;98386.59;6296102;28;19920;-67
2022/12/16 04:05:36;;;;;;;;;;;;;;;-18.12;53.47;98381.13;6294625;28;19920;-69
2022/12/16 04:08:42;;;;;;;;;;;;;;;-17.98;53.49;98396.31;6294885;28;19920;-68
2022/12/16 04:25:06;;;;;;;;;;;;;;;-17.84;53.05;98395.63;6295180;28;19932;-66
2022/12/16 04:28:07;;;;;;;;;;;;;;;-17.78;53.14;98403.56;6294182;28;19920;-66
2022/12/16 04:31:10;;;;;;;;;;;;;;;-17.72;53.04;98393.91;6294443;28;19920;-67
2022/12/16 04:34:27;;;;;;;;;;;;;;;-17.67;52.95;98387.56;6294882;28;19928;-67
